Deatsville, Kentucky
Current Conditions -  °F | °C
As of 6:56 AM on Thursday 23 Oct 2014 (Local Time) from KSDF Reporting Station
Clear Clear  
Wind Chill: 38°   Ceiling: Unl
Heat Index: 42°   Visibility: 10mi
Dew Point: 38°   Wind: 6mph
Humidity: 85%   Direction: 130°SE
Pressure: 30.26"   Gusts: NA
Location:  37.9212°N, 85.4864°W
Report Text: KSDF 231056Z 13005KT 10SM CLR 06/03 A3026 RMK AO2 SLP249 T00560033
Loading
Personal Weather Stations






























Interactive Weather Map
Tropical Storm Tracking
New forecast layout! Learn more

10-Day Weather Forecast

Advertisements
Track Severe Weather on mobile